createdAt,value
2023-01-15T00:02:16.929Z,18.50
2023-01-15T00:04:44.341Z,18.40
2023-01-15T00:07:11.392Z,23.80
2023-01-15T00:09:38.417Z,20.30
2023-01-15T00:12:05.465Z,24.30
2023-01-15T00:14:33.153Z,20.40
2023-01-15T00:17:00.410Z,26.20
2023-01-15T00:19:27.446Z,18.10
2023-01-15T00:21:54.573Z,21.60
2023-01-15T00:24:40.603Z,24.80
2023-01-15T00:27:28.813Z,25.90
2023-01-15T00:29:56.902Z,17.60
2023-01-15T00:32:27.316Z,20.80
2023-01-15T00:34:55.582Z,20.40
2023-01-15T00:37:23.973Z,21.30
2023-01-15T00:39:51.140Z,21.80
2023-01-15T00:42:18.054Z,25.80
2023-01-15T00:44:47.456Z,24.00
2023-01-15T00:47:15.344Z,20.00
2023-01-15T00:49:42.992Z,26.30
2023-01-15T00:52:10.447Z,24.90
2023-01-15T00:54:37.794Z,20.90
2023-01-15T00:57:04.953Z,18.90
2023-01-15T00:59:32.298Z,24.30
2023-01-15T01:02:00.029Z,21.10
2023-01-15T01:04:27.108Z,17.40
2023-01-15T01:06:55.693Z,18.90
2023-01-15T01:09:23.086Z,22.80
2023-01-15T01:11:50.308Z,18.80
2023-01-15T01:14:17.659Z,19.50
2023-01-15T01:16:44.804Z,16.50
2023-01-15T01:19:16.963Z,22.80
2023-01-15T01:21:45.246Z,18.40
2023-01-15T01:24:13.448Z,17.90
2023-01-15T01:26:40.971Z,21.20
2023-01-15T01:29:08.226Z,23.40
2023-01-15T01:31:35.498Z,22.80
2023-01-15T01:34:02.524Z,23.10
2023-01-15T01:36:34.791Z,23.30
2023-01-15T01:39:02.154Z,26.50
2023-01-15T01:41:29.402Z,25.50
2023-01-15T01:44:36.997Z,24.10
2023-01-15T01:47:09.239Z,21.50
2023-01-15T01:49:37.639Z,21.00
2023-01-15T01:52:08.697Z,27.40
2023-01-15T01:54:35.946Z,20.10
2023-01-15T01:57:02.846Z,26.30
2023-01-15T01:59:30.232Z,20.80
2023-01-15T02:01:57.552Z,17.60
2023-01-15T02:04:24.839Z,25.10
2023-01-15T02:06:52.099Z,22.10
2023-01-15T02:09:19.134Z,20.20
2023-01-15T02:11:46.301Z,24.70
2023-01-15T02:14:22.547Z,28.20
2023-01-15T02:16:58.557Z,22.90
2023-01-15T02:19:47.361Z,25.10
2023-01-15T02:22:37.882Z,19.80
2023-01-15T02:25:19.450Z,25.90
2023-01-15T02:28:04.323Z,22.60
2023-01-15T02:30:38.731Z,24.50
2023-01-15T02:33:12.855Z,21.10
2023-01-15T02:35:51.970Z,26.00
2023-01-15T02:38:21.289Z,25.40
2023-01-15T02:40:51.418Z,20.20
2023-01-15T02:43:19.668Z,25.00
2023-01-15T02:45:51.376Z,26.40
2023-01-15T02:48:19.107Z,28.00
2023-01-15T02:50:53.091Z,22.90
2023-01-15T02:53:23.327Z,25.80
2023-01-15T02:55:51.598Z,27.20
2023-01-15T02:58:25.613Z,22.70
2023-01-15T03:00:54.840Z,19.60
2023-01-15T03:03:53.696Z,23.50
2023-01-15T03:06:47.573Z,22.60
2023-01-15T03:09:15.649Z,23.50
2023-01-15T03:11:48.229Z,22.60
2023-01-15T03:14:21.507Z,22.00
2023-01-15T03:16:52.394Z,22.60
2023-01-15T03:19:26.048Z,24.20
2023-01-15T03:21:56.764Z,30.80
2023-01-15T03:24:30.852Z,21.60
2023-01-15T03:26:59.102Z,19.50
2023-01-15T03:29:28.714Z,24.20
2023-01-15T03:31:55.777Z,21.10
2023-01-15T03:34:22.661Z,24.20
2023-01-15T03:36:49.937Z,23.50
2023-01-15T03:39:18.904Z,20.00
2023-01-15T03:41:57.731Z,17.40
2023-01-15T03:44:32.762Z,25.40
2023-01-15T03:47:27.763Z,24.10
2023-01-15T03:50:03.962Z,20.10
2023-01-15T03:52:59.441Z,25.40
2023-01-15T03:56:01.607Z,22.70
2023-01-15T03:58:52.309Z,18.50
2023-01-15T04:01:26.960Z,21.50
2023-01-15T04:03:54.001Z,29.00
2023-01-15T04:06:26.075Z,23.70
2023-01-15T04:08:52.868Z,23.40
2023-01-15T04:11:24.131Z,22.40
2023-01-15T07:38:14.813Z,29.80
2023-01-15T07:40:41.973Z,30.40
2023-01-15T07:43:29.081Z,30.60
2023-01-15T07:46:14.561Z,35.70
2023-01-15T07:49:00.547Z,36.40
2023-01-15T07:51:27.594Z,36.30
2023-01-15T07:53:54.644Z,28.60
2023-01-15T07:56:21.996Z,26.30
2023-01-15T07:58:49.863Z,30.50
2023-01-15T08:01:16.924Z,25.00
2023-01-15T08:03:44.226Z,29.80
2023-01-15T08:06:11.318Z,30.20
2023-01-15T08:08:38.254Z,32.40
2023-01-15T08:11:24.551Z,33.00
2023-01-15T08:14:11.671Z,26.60
2023-01-15T08:16:38.742Z,26.70
2023-01-15T08:19:05.967Z,28.50
2023-01-15T08:21:33.929Z,30.80
2023-01-15T08:24:01.085Z,26.10
2023-01-15T08:26:28.134Z,39.90
2023-01-15T08:28:55.382Z,29.10
2023-01-15T08:31:22.490Z,22.30
2023-01-15T08:33:53.472Z,23.50
2023-01-15T08:36:20.626Z,27.40
2023-01-15T08:38:50.742Z,25.20
2023-01-15T08:41:17.887Z,33.40
2023-01-15T08:43:45.447Z,30.40
2023-01-15T08:46:12.943Z,25.30
2023-01-15T08:48:39.951Z,24.10
2023-01-15T08:51:08.641Z,24.00
2023-01-15T08:53:35.785Z,20.70
2023-01-15T08:56:03.001Z,21.90
2023-01-15T08:58:31.012Z,31.20
2023-01-15T09:01:09.279Z,32.00
2023-01-15T09:03:36.360Z,45.40
2023-01-15T09:06:05.454Z,40.00
2023-01-15T09:08:34.653Z,33.20
2023-01-15T09:11:03.058Z,28.80
2023-01-15T09:13:30.157Z,39.00
2023-01-15T09:16:02.465Z,29.40
2023-01-15T09:18:29.663Z,34.50
2023-01-15T09:20:57.586Z,38.80
2023-01-15T09:23:24.900Z,37.30
2023-01-15T09:25:59.478Z,39.50
2023-01-15T09:28:27.923Z,41.80
2023-01-15T09:30:55.191Z,38.50
2023-01-15T09:33:22.841Z,45.00
2023-01-15T09:35:49.883Z,49.30
2023-01-15T09:38:18.982Z,41.90
2023-01-15T09:40:52.586Z,52.50
2023-01-15T09:43:36.207Z,64.40
2023-01-15T09:46:13.239Z,45.20
2023-01-15T09:49:12.700Z,42.80
2023-01-15T09:51:51.831Z,43.60
2023-01-15T09:54:31.986Z,42.50
2023-01-15T09:56:59.182Z,38.70
2023-01-15T09:59:32.363Z,44.40
2023-01-15T10:02:01.423Z,38.40
2023-01-15T10:04:34.164Z,42.30
2023-01-15T10:07:17.772Z,40.80
2023-01-15T10:09:44.689Z,37.10
2023-01-15T10:12:36.204Z,37.80
2023-01-15T10:15:20.769Z,34.80
2023-01-15T10:17:48.790Z,33.70
2023-01-15T10:20:49.983Z,29.70
2023-01-15T10:23:34.216Z,35.30
2023-01-15T10:26:16.909Z,35.40
2023-01-15T10:29:02.863Z,33.70
2023-01-15T10:31:45.029Z,28.40
2023-01-15T10:34:28.569Z,29.30
2023-01-15T10:36:57.546Z,30.30
2023-01-15T10:39:24.615Z,31.10
2023-01-15T10:42:09.960Z,33.60
2023-01-15T10:44:43.276Z,36.50
2023-01-15T10:47:15.450Z,24.20
2023-01-15T10:49:42.626Z,23.00
2023-01-15T10:52:22.946Z,25.50
2023-01-15T10:54:53.695Z,27.20
2023-01-15T12:41:55.066Z,21.50
2023-01-15T12:45:02.667Z,17.30
2023-01-15T14:58:04.114Z,21.20
2023-01-15T15:00:36.490Z,20.30
2023-01-15T15:03:05.285Z,15.40
2023-01-15T15:05:32.216Z,13.20
2023-01-15T15:07:59.675Z,13.60
2023-01-15T15:10:34.605Z,18.20
2023-01-15T15:13:08.512Z,15.10
2023-01-15T15:15:41.499Z,14.70
2023-01-15T15:18:11.837Z,13.00
2023-01-15T15:20:42.044Z,10.10
2023-01-15T15:23:15.541Z,9.60
2023-01-15T15:25:54.262Z,8.20
2023-01-15T15:28:21.412Z,6.50
2023-01-15T15:30:48.602Z,17.20
2023-01-15T15:33:20.726Z,20.50
2023-01-15T15:35:50.322Z,24.10
2023-01-15T15:38:18.716Z,23.60
2023-01-15T15:40:50.841Z,20.60
2023-01-15T15:44:03.903Z,16.60
2023-01-15T15:46:50.917Z,21.40
2023-01-15T15:49:19.623Z,19.30
2023-01-15T15:51:48.307Z,19.30
2023-01-15T15:54:27.228Z,17.70
2023-01-15T15:57:12.185Z,17.60
2023-01-15T15:59:44.654Z,12.20
2023-01-15T16:02:19.082Z,9.60
2023-01-15T16:04:50.839Z,4.70
2023-01-15T16:07:25.366Z,6.30
2023-01-15T16:10:20.087Z,6.10
2023-01-15T16:12:52.021Z,12.50
2023-01-15T16:15:21.208Z,12.40
2023-01-15T16:17:48.254Z,14.10
2023-01-15T16:20:17.163Z,14.00
2023-01-15T16:22:55.050Z,15.60
2023-01-15T16:25:45.040Z,11.30
2023-01-15T16:28:26.218Z,10.20
2023-01-15T16:30:57.180Z,9.20
2023-01-15T16:33:24.504Z,9.30
2023-01-15T16:35:56.878Z,10.70
2023-01-15T16:38:24.001Z,6.60
2023-01-15T16:40:51.170Z,5.90
2023-01-15T16:43:21.707Z,5.80
2023-01-15T16:46:01.295Z,6.00
2023-01-15T16:48:41.398Z,5.80
2023-01-15T16:51:27.076Z,6.10
2023-01-15T16:53:54.238Z,8.00
2023-01-15T16:56:27.373Z,8.80
2023-01-15T16:58:54.677Z,7.00
2023-01-15T17:01:41.288Z,8.00
2023-01-15T17:04:26.985Z,6.60
2023-01-15T17:07:20.340Z,8.60
2023-01-15T17:09:49.322Z,9.80
2023-01-15T17:12:29.671Z,7.90
2023-01-15T17:15:15.669Z,11.10
2023-01-15T17:17:52.958Z,9.70
2023-01-15T17:20:23.394Z,10.80
2023-01-15T17:22:50.319Z,9.10
2023-01-15T17:25:20.266Z,10.90
2023-01-15T17:27:47.319Z,9.00
2023-01-15T17:30:15.353Z,7.40
2023-01-15T17:32:42.550Z,6.90
2023-01-15T17:35:15.998Z,5.30
2023-01-15T17:37:42.946Z,4.70
2023-01-15T17:40:10.922Z,4.90
2023-01-15T17:42:38.469Z,7.00
2023-01-15T17:45:06.339Z,4.10
2023-01-15T17:47:34.530Z,4.30
2023-01-15T17:50:01.789Z,6.00
2023-01-15T17:52:29.015Z,3.40
2023-01-15T17:55:14.900Z,3.90
2023-01-15T17:58:00.481Z,2.60
2023-01-15T18:00:47.815Z,2.30
2023-01-15T18:03:36.867Z,2.30
2023-01-15T18:06:05.045Z,3.20
2023-01-15T18:08:33.274Z,3.10
2023-01-15T18:11:02.440Z,3.30
2023-01-15T18:13:29.972Z,2.70
2023-01-15T18:15:57.084Z,3.00
2023-01-15T18:18:24.382Z,2.70
2023-01-15T18:20:51.725Z,3.10
2023-01-15T18:23:18.977Z,3.80
2023-01-15T18:25:47.054Z,4.70
2023-01-15T18:28:14.708Z,3.80
2023-01-15T18:30:42.063Z,3.00
2023-01-15T18:33:09.317Z,4.10
2023-01-15T18:35:36.280Z,4.30
2023-01-15T18:38:03.610Z,4.60
2023-01-15T18:40:31.068Z,3.90
2023-01-15T18:43:37.027Z,6.30
2023-01-15T18:46:24.624Z,7.70
2023-01-15T18:48:51.497Z,5.40
2023-01-15T18:51:18.758Z,5.80
2023-01-15T18:53:48.356Z,5.80
2023-01-15T18:56:35.376Z,5.20
2023-01-15T18:59:02.521Z,5.10
2023-01-15T19:01:30.419Z,5.80
2023-01-15T19:03:58.560Z,10.20
2023-01-15T19:06:25.610Z,7.60
2023-01-15T19:08:54.190Z,6.70
2023-01-15T19:11:21.749Z,10.60
2023-01-15T19:14:08.763Z,9.40
2023-01-15T22:30:12.582Z,3.70
2023-01-15T22:32:42.096Z,6.90
2023-01-15T22:35:10.257Z,4.90
2023-01-15T22:37:37.208Z,5.90
2023-01-15T22:40:11.236Z,4.10
2023-01-15T22:42:38.977Z,4.00
2023-01-15T22:45:06.539Z,3.50
2023-01-15T22:47:34.317Z,4.40
2023-01-15T22:50:01.451Z,3.30
2023-01-15T22:52:28.903Z,6.10
2023-01-15T22:54:59.840Z,5.50
2023-01-15T22:57:28.934Z,7.00
2023-01-15T22:59:56.700Z,4.50
2023-01-15T23:02:42.287Z,4.90
2023-01-15T23:05:10.270Z,6.90
2023-01-15T23:07:39.850Z,5.00
2023-01-15T23:10:08.344Z,4.40
2023-01-15T23:12:35.591Z,4.20
2023-01-15T23:15:02.432Z,2.80
2023-01-15T23:17:29.999Z,6.20
2023-01-15T23:19:57.034Z,3.70
2023-01-15T23:22:24.084Z,3.60
2023-01-15T23:24:51.335Z,5.10
2023-01-15T23:27:18.295Z,4.90
2023-01-15T23:29:47.690Z,3.80
2023-01-15T23:32:14.832Z,6.00
2023-01-15T23:34:41.876Z,3.70
2023-01-15T23:37:10.051Z,4.80
2023-01-15T23:39:37.201Z,6.60
2023-01-15T23:42:23.195Z,4.80
2023-01-15T23:45:08.987Z,5.00
2023-01-15T23:47:36.127Z,4.90
2023-01-15T23:50:05.094Z,4.70
2023-01-15T23:52:32.680Z,5.70
2023-01-15T23:54:59.836Z,5.80
2023-01-15T23:57:26.769Z,5.40
2023-01-15T23:59:53.824Z,11.20
